createdAt,value
2022-12-31T00:01:56.642Z,67.08
2022-12-31T00:04:23.329Z,67.27
2022-12-31T00:06:49.932Z,66.85
2022-12-31T00:09:16.539Z,66.34
2022-12-31T00:11:43.137Z,66.49
2022-12-31T00:14:09.775Z,66.31
2022-12-31T00:16:38.436Z,66.99
2022-12-31T00:19:08.466Z,67.24
2022-12-31T00:21:35.214Z,67.39
2022-12-31T00:24:02.189Z,66.87
2022-12-31T00:26:29.905Z,67.58
2022-12-31T00:28:56.949Z,67.41
2022-12-31T00:31:25.353Z,67.68
2022-12-31T00:33:52.064Z,67.88
2022-12-31T00:36:20.829Z,67.63
2022-12-31T00:38:48.830Z,68.15
2022-12-31T00:41:15.559Z,67.91
2022-12-31T00:43:42.216Z,67.71
2022-12-31T00:46:08.931Z,68.22
2022-12-31T00:48:35.704Z,67.85
2022-12-31T00:51:03.259Z,67.92
2022-12-31T00:53:29.884Z,67.54
2022-12-31T00:56:03.816Z,67.42
2022-12-31T00:58:30.433Z,67.12
2022-12-31T01:00:57.504Z,68.11
2022-12-31T01:03:24.883Z,68.16
2022-12-31T01:05:52.060Z,67.50
2022-12-31T01:08:18.667Z,67.78
2022-12-31T01:10:51.554Z,68.02
2022-12-31T01:13:18.212Z,67.27
2022-12-31T01:15:44.942Z,67.56
2022-12-31T01:18:11.822Z,67.60
2022-12-31T01:20:39.823Z,67.48
2022-12-31T01:23:06.755Z,67.65
2022-12-31T01:25:39.665Z,67.75
2022-12-31T01:28:06.335Z,67.25
2022-12-31T01:30:33.104Z,67.73
2022-12-31T01:32:59.777Z,68.14
2022-12-31T01:35:26.495Z,67.53
2022-12-31T01:37:53.111Z,68.26
2022-12-31T01:40:19.719Z,67.81
2022-12-31T01:42:53.961Z,67.76
2022-12-31T01:45:20.631Z,67.17
2022-12-31T01:47:49.777Z,66.84
2022-12-31T01:50:27.974Z,67.15
2022-12-31T01:52:57.135Z,67.41
2022-12-31T01:55:46.895Z,67.80
2022-12-31T01:58:21.571Z,68.41
2022-12-31T02:00:48.321Z,68.42
2022-12-31T02:03:14.993Z,68.53
2022-12-31T02:05:54.736Z,67.98
2022-12-31T02:08:21.360Z,67.45
2022-12-31T02:10:48.075Z,68.08
2022-12-31T02:13:14.701Z,67.69
2022-12-31T02:16:03.181Z,67.67
2022-12-31T02:18:39.050Z,67.40
2022-12-31T02:21:05.585Z,67.90
2022-12-31T02:24:01.238Z,67.71
2022-12-31T02:26:55.681Z,68.16
2022-12-31T02:29:50.151Z,67.91
2022-12-31T02:32:36.872Z,68.44
2022-12-31T02:35:13.414Z,67.79
2022-12-31T02:37:40.119Z,67.61
2022-12-31T02:40:08.053Z,68.27
2022-12-31T02:42:34.669Z,68.14
2022-12-31T02:45:01.312Z,68.31
2022-12-31T02:47:40.300Z,68.41
2022-12-31T02:50:37.875Z,68.50
2022-12-31T02:53:32.549Z,68.14
2022-12-31T02:56:33.075Z,68.55
2022-12-31T02:59:16.407Z,68.45
2022-12-31T03:01:44.385Z,68.35
2022-12-31T03:04:11.270Z,68.07
2022-12-31T03:06:37.866Z,68.55
2022-12-31T03:09:04.498Z,68.35
2022-12-31T03:11:31.144Z,67.74
2022-12-31T03:13:57.880Z,67.89
2022-12-31T03:16:24.559Z,68.11
2022-12-31T03:18:51.205Z,67.59
2022-12-31T03:21:18.003Z,67.14
2022-12-31T03:23:44.679Z,67.89
2022-12-31T03:26:11.836Z,67.48
2022-12-31T03:28:39.886Z,67.75
2022-12-31T03:31:07.093Z,67.81
2022-12-31T03:33:35.286Z,68.07
2022-12-31T03:36:06.864Z,67.76
2022-12-31T03:38:33.582Z,68.01
2022-12-31T03:41:00.236Z,67.99
2022-12-31T03:43:26.868Z,67.84
2022-12-31T03:45:54.113Z,67.50
2022-12-31T03:48:21.798Z,67.40
2022-12-31T03:50:48.456Z,67.20
2022-12-31T03:53:15.114Z,67.66
2022-12-31T03:55:41.749Z,67.89
2022-12-31T03:58:08.359Z,67.69
2022-12-31T04:00:34.941Z,68.33
2022-12-31T04:03:01.618Z,67.73
2022-12-31T04:05:28.259Z,67.25
2022-12-31T04:07:54.853Z,67.29
2022-12-31T04:10:21.536Z,67.14
2022-12-31T04:12:48.187Z,66.87
2022-12-31T04:15:19.306Z,67.73
2022-12-31T04:17:46.396Z,67.96
2022-12-31T04:20:13.063Z,68.14
2022-12-31T04:22:39.710Z,67.81
2022-12-31T04:25:07.571Z,68.09
2022-12-31T04:27:34.245Z,68.18
2022-12-31T04:30:00.974Z,67.61
2022-12-31T04:32:27.608Z,67.64
2022-12-31T04:34:54.334Z,67.54
2022-12-31T04:37:20.983Z,67.01
2022-12-31T04:39:47.613Z,67.30
2022-12-31T04:42:14.261Z,67.32
2022-12-31T04:44:40.917Z,67.37
2022-12-31T04:47:07.565Z,66.97
2022-12-31T04:49:34.167Z,66.70
2022-12-31T04:52:00.799Z,67.30
2022-12-31T04:54:27.451Z,66.59
2022-12-31T04:56:54.168Z,66.81
2022-12-31T04:59:20.850Z,66.79
2022-12-31T05:01:47.590Z,66.91
2022-12-31T05:04:14.317Z,66.69
2022-12-31T05:06:40.987Z,67.44
2022-12-31T05:09:07.605Z,67.55
2022-12-31T05:11:34.193Z,67.79
2022-12-31T05:14:00.789Z,67.59
2022-12-31T05:16:27.452Z,67.60
2022-12-31T05:18:54.072Z,67.60
2022-12-31T05:21:21.034Z,68.07
2022-12-31T05:23:47.831Z,68.08
2022-12-31T05:26:14.412Z,67.85
2022-12-31T05:28:41.056Z,67.98
2022-12-31T05:31:07.707Z,68.31
2022-12-31T05:33:34.384Z,67.77
2022-12-31T05:36:01.046Z,67.47
2022-12-31T05:38:27.650Z,67.74
2022-12-31T05:41:04.220Z,67.46
2022-12-31T05:43:31.097Z,67.24
2022-12-31T05:46:00.721Z,67.35
2022-12-31T05:48:27.480Z,67.38
2022-12-31T05:50:54.106Z,67.69
2022-12-31T05:53:20.753Z,67.93
2022-12-31T05:55:47.569Z,68.22
2022-12-31T05:58:15.235Z,68.00
2022-12-31T06:00:41.943Z,67.92
2022-12-31T06:03:08.688Z,67.44
2022-12-31T06:05:35.402Z,68.11
2022-12-31T06:08:02.051Z,67.84
2022-12-31T06:10:28.702Z,67.61
2022-12-31T06:12:55.346Z,67.81
2022-12-31T06:15:21.986Z,67.25
2022-12-31T06:17:48.576Z,66.92
2022-12-31T06:20:15.210Z,67.32
2022-12-31T06:22:41.874Z,67.25
2022-12-31T06:25:08.890Z,67.15
2022-12-31T06:27:35.534Z,67.30
2022-12-31T06:30:02.146Z,67.43
2022-12-31T06:32:28.795Z,67.59
2022-12-31T06:34:55.431Z,67.55
2022-12-31T06:37:22.127Z,67.56
2022-12-31T06:39:50.322Z,67.62
2022-12-31T06:42:16.959Z,68.29
2022-12-31T06:44:43.555Z,67.96
2022-12-31T06:47:10.283Z,67.64
2022-12-31T06:49:36.934Z,67.36
2022-12-31T06:52:03.556Z,68.11
2022-12-31T06:54:30.235Z,68.13
2022-12-31T06:56:57.295Z,67.83
2022-12-31T06:59:28.287Z,68.08
2022-12-31T07:02:05.484Z,67.71
2022-12-31T07:04:35.027Z,67.80
2022-12-31T07:07:22.750Z,68.38
2022-12-31T07:09:55.336Z,68.80
2022-12-31T07:12:37.954Z,68.27
2022-12-31T07:15:06.603Z,68.52
2022-12-31T07:17:54.707Z,68.05
2022-12-31T07:20:21.744Z,68.17
2022-12-31T07:22:48.814Z,68.22
2022-12-31T07:25:18.764Z,67.73
2022-12-31T07:28:06.291Z,67.96
2022-12-31T07:30:44.989Z,67.52
2022-12-31T07:33:17.540Z,67.91
2022-12-31T07:35:54.119Z,67.38
2022-12-31T07:38:34.221Z,67.39
2022-12-31T07:41:09.314Z,67.92
2022-12-31T07:44:01.607Z,68.86
2022-12-31T07:46:36.124Z,69.03
2022-12-31T07:49:03.033Z,68.57
2022-12-31T07:51:30.011Z,68.25
2022-12-31T07:53:56.627Z,69.18
2022-12-31T07:56:23.425Z,68.95
2022-12-31T07:59:09.100Z,68.93
2022-12-31T08:01:40.133Z,68.78
2022-12-31T08:04:18.338Z,68.69
2022-12-31T08:07:42.204Z,68.70
2022-12-31T08:10:27.661Z,68.51
2022-12-31T08:13:01.714Z,68.62
2022-12-31T08:15:30.698Z,69.10
2022-12-31T08:17:57.831Z,69.02
2022-12-31T08:20:24.802Z,68.83
2022-12-31T08:23:15.832Z,68.28
2022-12-31T08:25:55.612Z,68.94
2022-12-31T08:28:43.837Z,68.28
2022-12-31T08:31:27.164Z,68.69
2022-12-31T08:34:31.144Z,68.63
2022-12-31T08:37:05.893Z,68.47
2022-12-31T08:39:32.406Z,68.62
2022-12-31T08:41:59.063Z,68.46
2022-12-31T08:44:57.911Z,69.73
2022-12-31T08:47:58.000Z,68.96
2022-12-31T08:50:26.604Z,69.91
2022-12-31T08:52:53.521Z,69.85
2022-12-31T08:55:20.508Z,69.60
2022-12-31T08:58:04.777Z,69.53
2022-12-31T09:00:31.425Z,68.97
2022-12-31T09:03:03.950Z,69.15
2022-12-31T09:05:57.130Z,68.84
2022-12-31T09:08:29.807Z,69.31
2022-12-31T09:11:25.050Z,68.46
2022-12-31T09:14:00.850Z,68.51
2022-12-31T09:16:27.415Z,68.06
2022-12-31T09:18:54.058Z,68.32
2022-12-31T09:21:20.808Z,68.42
2022-12-31T09:23:47.516Z,67.89
2022-12-31T09:26:25.958Z,68.29
2022-12-31T09:29:09.817Z,68.16
2022-12-31T09:31:48.839Z,68.20
2022-12-31T09:34:24.300Z,67.84
2022-12-31T09:36:54.663Z,68.01
2022-12-31T09:39:43.112Z,67.48
2022-12-31T09:42:21.812Z,67.82
2022-12-31T09:44:54.451Z,67.80
2022-12-31T09:48:02.959Z,68.39
2022-12-31T09:50:35.568Z,68.17
2022-12-31T09:53:11.008Z,68.30
2022-12-31T09:55:56.510Z,67.99
2022-12-31T09:58:38.305Z,68.43
2022-12-31T10:01:21.530Z,67.99
2022-12-31T10:04:15.740Z,67.89
2022-12-31T10:07:05.318Z,67.83
2022-12-31T10:09:41.044Z,67.97
2022-12-31T10:12:25.038Z,68.01
2022-12-31T10:15:03.879Z,67.42
2022-12-31T10:17:49.179Z,66.67
2022-12-31T10:20:45.081Z,66.77
2022-12-31T10:23:33.375Z,66.62
2022-12-31T10:26:10.520Z,66.07
2022-12-31T10:28:49.101Z,65.32
2022-12-31T10:31:41.905Z,64.32
2022-12-31T10:34:18.938Z,65.06
2022-12-31T10:36:57.874Z,65.14
2022-12-31T10:39:43.590Z,65.35
2022-12-31T10:42:25.237Z,62.74
2022-12-31T10:45:10.554Z,65.38
2022-12-31T10:47:55.301Z,65.32
2022-12-31T10:50:47.689Z,65.44
2022-12-31T10:53:17.152Z,64.83
2022-12-31T10:56:22.893Z,63.93
2022-12-31T10:59:11.230Z,65.78
2022-12-31T11:01:59.240Z,65.52
2022-12-31T11:05:03.551Z,65.87
2022-12-31T11:07:54.597Z,66.36
2022-12-31T11:10:49.028Z,66.58
2022-12-31T11:13:24.428Z,65.58
2022-12-31T11:16:18.050Z,66.00
2022-12-31T11:19:12.246Z,62.34
2022-12-31T11:21:41.353Z,59.94
2022-12-31T11:24:26.533Z,63.43
2022-12-31T11:26:58.820Z,65.20
2022-12-31T11:29:30.468Z,63.93
2022-12-31T11:32:22.792Z,64.14
2022-12-31T11:34:59.732Z,65.28
2022-12-31T11:38:04.065Z,62.88
2022-12-31T11:40:39.435Z,63.95
2022-12-31T11:43:30.461Z,63.83
2022-12-31T11:46:32.150Z,63.90
2022-12-31T11:49:29.578Z,63.69
2022-12-31T11:52:03.716Z,61.68
2022-12-31T11:54:33.331Z,62.58
2022-12-31T11:57:01.950Z,63.55
2022-12-31T11:59:28.622Z,62.34
2022-12-31T12:02:04.518Z,61.31
2022-12-31T12:04:32.154Z,61.83
2022-12-31T12:06:58.795Z,62.16
2022-12-31T12:09:27.847Z,58.11
2022-12-31T12:12:01.984Z,60.67
2022-12-31T12:14:35.870Z,62.22
2022-12-31T12:17:05.429Z,61.81
2022-12-31T12:19:33.452Z,58.78
2022-12-31T12:22:08.735Z,57.57
2022-12-31T12:24:35.383Z,61.04
2022-12-31T12:27:02.029Z,57.54
2022-12-31T12:29:30.379Z,56.04
2022-12-31T12:32:15.838Z,56.35
2022-12-31T12:34:49.189Z,57.42
2022-12-31T12:37:31.764Z,58.86
2022-12-31T12:40:02.908Z,60.69
2022-12-31T12:42:29.916Z,59.65
2022-12-31T12:45:17.230Z,60.64
2022-12-31T12:47:44.019Z,60.95
2022-12-31T12:50:22.096Z,57.01
2022-12-31T12:53:36.061Z,55.72
2022-12-31T12:56:06.474Z,56.52
2022-12-31T12:58:51.000Z,58.69
2022-12-31T13:01:38.980Z,61.57
2022-12-31T13:04:34.138Z,60.60
2022-12-31T13:07:34.621Z,62.33
2022-12-31T13:10:07.486Z,62.53
2022-12-31T13:13:25.827Z,62.39
2022-12-31T13:16:03.725Z,62.19
2022-12-31T13:18:45.470Z,63.96
2022-12-31T13:21:30.330Z,62.89
2022-12-31T13:24:32.279Z,61.47
2022-12-31T13:27:17.656Z,61.71
2022-12-31T13:29:44.390Z,62.24
2022-12-31T13:32:12.831Z,62.17
2022-12-31T13:34:40.956Z,61.24
2022-12-31T13:37:21.428Z,61.48
2022-12-31T13:39:48.091Z,62.49
2022-12-31T13:42:22.263Z,63.58
2022-12-31T13:44:56.341Z,61.33
2022-12-31T13:47:45.408Z,62.76
2022-12-31T13:50:19.782Z,63.61
2022-12-31T13:52:54.997Z,64.30
2022-12-31T13:55:28.097Z,64.70
2022-12-31T13:58:05.913Z,63.75
2022-12-31T14:00:57.806Z,64.58
2022-12-31T14:03:50.954Z,65.33
2022-12-31T14:06:32.520Z,65.30
2022-12-31T14:08:59.408Z,63.17
2022-12-31T14:11:53.163Z,65.13
2022-12-31T14:14:35.714Z,62.90
2022-12-31T14:17:14.317Z,64.93
2022-12-31T14:19:45.411Z,64.86
2022-12-31T14:22:33.898Z,63.94
2022-12-31T14:25:00.502Z,64.12
2022-12-31T14:27:33.154Z,63.76
2022-12-31T14:30:02.002Z,65.31
2022-12-31T14:32:47.351Z,64.95
2022-12-31T14:35:52.516Z,64.47
2022-12-31T14:38:24.740Z,63.77
2022-12-31T14:41:11.519Z,64.39
2022-12-31T14:44:03.466Z,63.75
2022-12-31T14:46:35.824Z,64.79
2022-12-31T14:49:21.092Z,64.77
2022-12-31T14:51:47.693Z,64.37
2022-12-31T14:54:36.181Z,64.48
2022-12-31T14:57:17.813Z,64.84
2022-12-31T14:59:55.609Z,64.41
2022-12-31T15:02:33.117Z,65.07
2022-12-31T15:05:12.080Z,64.81
2022-12-31T15:08:08.818Z,63.95
2022-12-31T15:10:35.368Z,65.63
2022-12-31T15:13:03.269Z,64.61
2022-12-31T15:15:41.611Z,64.73
2022-12-31T15:18:26.495Z,65.21
2022-12-31T15:20:55.844Z,64.18
2022-12-31T15:23:24.210Z,64.24
2022-12-31T15:26:01.925Z,64.39
2022-12-31T15:28:36.356Z,64.43
2022-12-31T15:31:18.221Z,64.25
2022-12-31T15:34:04.530Z,64.03
2022-12-31T15:36:54.482Z,65.39
2022-12-31T15:39:29.925Z,65.54
2022-12-31T15:42:36.268Z,65.61
2022-12-31T15:44:50.905Z,66.08
2022-12-31T15:47:43.083Z,66.45
2022-12-31T15:50:18.827Z,66.57
2022-12-31T15:52:47.356Z,66.69
2022-12-31T15:55:33.519Z,66.32
2022-12-31T15:58:04.998Z,66.55
2022-12-31T16:00:55.389Z,66.32
2022-12-31T16:03:26.127Z,66.13
2022-12-31T16:05:56.466Z,66.30
2022-12-31T16:08:23.902Z,66.84
2022-12-31T16:10:50.535Z,66.60
2022-12-31T16:13:24.816Z,67.26
2022-12-31T16:16:03.494Z,66.98
2022-12-31T16:18:39.815Z,67.24
2022-12-31T16:21:06.966Z,66.63
2022-12-31T16:23:38.790Z,66.49
2022-12-31T16:26:08.764Z,66.44
2022-12-31T16:28:35.549Z,67.03
2022-12-31T16:31:03.963Z,66.29
2022-12-31T16:33:30.693Z,66.81
2022-12-31T16:35:58.108Z,66.50
2022-12-31T16:38:35.146Z,66.46
2022-12-31T16:41:01.640Z,66.50
2022-12-31T16:43:29.129Z,66.32
2022-12-31T16:45:57.560Z,66.66
2022-12-31T16:48:24.270Z,66.42
2022-12-31T16:50:52.672Z,66.61
2022-12-31T16:53:24.152Z,66.56
2022-12-31T16:55:53.917Z,66.51
2022-12-31T16:58:31.371Z,66.34
2022-12-31T17:01:13.832Z,67.28
2022-12-31T17:03:42.705Z,66.82
2022-12-31T17:06:09.214Z,66.90
2022-12-31T17:08:44.042Z,66.95
2022-12-31T17:11:28.523Z,67.65
2022-12-31T17:14:08.215Z,66.99
2022-12-31T17:16:35.563Z,66.77
2022-12-31T17:19:02.165Z,66.49
2022-12-31T17:21:29.984Z,66.40
2022-12-31T17:24:02.124Z,66.12
2022-12-31T17:26:30.247Z,66.71
2022-12-31T17:28:57.428Z,66.36
2022-12-31T17:31:34.313Z,66.32
2022-12-31T17:34:21.701Z,66.45
2022-12-31T17:37:06.837Z,66.89
2022-12-31T17:39:52.727Z,66.42
2022-12-31T17:42:30.031Z,66.73
2022-12-31T17:44:59.540Z,66.52
2022-12-31T17:47:35.757Z,66.77
2022-12-31T17:50:31.705Z,66.43
2022-12-31T17:53:09.208Z,66.70
2022-12-31T17:55:35.893Z,66.86
2022-12-31T17:58:03.853Z,66.35
2022-12-31T18:00:30.512Z,66.09
2022-12-31T18:02:57.180Z,66.25
2022-12-31T18:05:23.823Z,66.58
2022-12-31T18:07:50.434Z,66.69
2022-12-31T18:10:17.445Z,66.71
2022-12-31T18:12:44.188Z,66.90
2022-12-31T18:15:18.436Z,67.24
2022-12-31T18:17:45.194Z,66.87
2022-12-31T18:20:11.913Z,66.69
2022-12-31T18:22:39.416Z,66.56
2022-12-31T18:25:06.252Z,66.08
2022-12-31T18:27:32.995Z,66.87
2022-12-31T18:30:04.474Z,67.17
2022-12-31T18:32:32.502Z,67.38
2022-12-31T18:34:59.146Z,66.96
2022-12-31T18:37:28.148Z,66.73
2022-12-31T18:39:54.777Z,66.63
2022-12-31T18:42:21.386Z,67.02
2022-12-31T18:44:47.969Z,66.81
2022-12-31T18:47:18.499Z,66.88
2022-12-31T18:49:45.175Z,67.17
2022-12-31T18:52:18.829Z,67.09
2022-12-31T18:54:45.519Z,67.63
2022-12-31T18:57:12.240Z,66.68
2022-12-31T18:59:38.910Z,67.64
2022-12-31T19:02:07.185Z,67.81
2022-12-31T19:04:33.864Z,67.41
2022-12-31T19:07:00.545Z,67.06
2022-12-31T19:12:14.285Z,67.48
2022-12-31T19:14:40.985Z,67.35
2022-12-31T19:19:33.142Z,67.64
2022-12-31T19:21:59.743Z,67.60
2022-12-31T19:24:26.545Z,67.29
2022-12-31T19:26:53.721Z,67.70
2022-12-31T19:29:22.286Z,67.51
2022-12-31T19:31:49.067Z,67.66
2022-12-31T19:34:15.760Z,67.54
2022-12-31T19:36:44.325Z,67.83
2022-12-31T19:39:18.893Z,67.47
2022-12-31T19:41:45.765Z,67.71
2022-12-31T19:44:16.098Z,67.74
2022-12-31T19:46:42.705Z,67.72
2022-12-31T19:49:11.334Z,67.27
2022-12-31T19:51:37.985Z,67.98
2022-12-31T19:54:06.675Z,67.83
2022-12-31T19:56:33.339Z,68.23
2022-12-31T19:59:06.299Z,68.21
2022-12-31T20:01:33.040Z,67.52
2022-12-31T20:03:59.728Z,67.28
2022-12-31T20:06:26.367Z,67.61
2022-12-31T20:08:52.980Z,67.53
2022-12-31T20:11:20.641Z,67.36
2022-12-31T20:13:47.912Z,67.03
2022-12-31T20:16:18.796Z,67.87
2022-12-31T20:18:46.015Z,67.35
2022-12-31T20:21:14.380Z,66.93
2022-12-31T20:23:41.002Z,67.19
2022-12-31T20:26:07.605Z,67.15
2022-12-31T20:28:35.127Z,67.23
2022-12-31T20:31:14.807Z,66.93
2022-12-31T20:33:41.725Z,67.01
2022-12-31T20:36:10.409Z,67.05
2022-12-31T20:38:37.064Z,66.76
2022-12-31T20:41:10.741Z,66.50
2022-12-31T20:43:37.639Z,66.51
2022-12-31T20:46:15.177Z,67.80
2022-12-31T20:48:43.035Z,67.29
2022-12-31T20:51:09.670Z,66.73
2022-12-31T20:53:36.295Z,67.17
2022-12-31T20:56:06.622Z,67.64
2022-12-31T20:58:33.394Z,67.35
2022-12-31T21:01:00.275Z,67.31
2022-12-31T21:04:03.049Z,67.65
2022-12-31T21:06:13.530Z,67.18
2022-12-31T21:08:40.373Z,68.09
2022-12-31T21:11:07.056Z,67.29
2022-12-31T21:13:33.675Z,67.84
2022-12-31T21:16:00.423Z,67.14
2022-12-31T21:18:27.079Z,67.20
2022-12-31T21:20:53.711Z,67.22
2022-12-31T21:23:20.316Z,66.63
2022-12-31T21:25:49.107Z,67.01
2022-12-31T21:28:15.715Z,66.84
2022-12-31T21:30:42.491Z,66.89
2022-12-31T21:33:11.409Z,66.92
2022-12-31T21:35:45.732Z,66.85
2022-12-31T21:38:15.572Z,67.16
2022-12-31T21:40:42.199Z,66.83
2022-12-31T21:43:08.794Z,66.97
2022-12-31T21:45:35.432Z,66.56
2022-12-31T21:48:02.086Z,66.48
2022-12-31T21:50:28.722Z,66.61
2022-12-31T21:52:55.323Z,66.22
2022-12-31T21:55:21.929Z,66.29
2022-12-31T21:58:24.338Z,66.00
2022-12-31T22:00:43.845Z,66.14
2022-12-31T22:03:11.605Z,65.93
2022-12-31T22:05:38.396Z,66.12
2022-12-31T22:08:05.138Z,65.93
2022-12-31T22:10:37.216Z,66.06
2022-12-31T22:13:04.263Z,65.33
2022-12-31T22:15:31.050Z,65.55
2022-12-31T22:17:57.683Z,65.63
2022-12-31T22:20:28.299Z,65.06
2022-12-31T22:22:55.388Z,65.36
2022-12-31T22:25:22.047Z,65.07
2022-12-31T22:28:04.464Z,65.38
2022-12-31T22:30:35.323Z,65.61
2022-12-31T22:33:01.930Z,65.71
2022-12-31T22:35:28.557Z,65.47
2022-12-31T22:37:57.922Z,65.43
2022-12-31T22:40:25.732Z,65.27
2022-12-31T22:42:52.377Z,65.49
2022-12-31T22:45:19.097Z,65.59
2022-12-31T22:47:45.756Z,65.68
2022-12-31T22:50:12.397Z,65.54
2022-12-31T22:52:39.044Z,65.59
2022-12-31T22:55:06.124Z,65.17
2022-12-31T22:57:32.759Z,65.07
2022-12-31T22:59:59.402Z,64.65
2022-12-31T23:02:26.083Z,64.24
2022-12-31T23:04:52.683Z,64.16
2022-12-31T23:07:39.238Z,64.14
2022-12-31T23:10:06.346Z,63.62
2022-12-31T23:12:33.047Z,63.79
2022-12-31T23:14:59.663Z,63.52
2022-12-31T23:17:30.757Z,63.45
2022-12-31T23:19:59.761Z,63.63
2022-12-31T23:22:26.435Z,63.49
2022-12-31T23:24:53.023Z,63.52
2022-12-31T23:27:19.722Z,63.88
2022-12-31T23:29:47.668Z,63.47
2022-12-31T23:32:17.503Z,63.15
2022-12-31T23:34:44.857Z,63.93
2022-12-31T23:37:14.911Z,64.04
2022-12-31T23:39:41.783Z,63.48
2022-12-31T23:42:08.428Z,63.86
2022-12-31T23:44:35.109Z,63.95
2022-12-31T23:47:01.795Z,63.78
2022-12-31T23:49:28.487Z,63.80
2022-12-31T23:51:55.206Z,64.20
2022-12-31T23:54:21.811Z,63.76
2022-12-31T23:56:48.415Z,64.39
2022-12-31T23:59:15.062Z,64.08
